Jp Tsubaki — JD2817 — position and weather

sailwx.info

Track history (hours):
 
Tides and Currents Weather Stations Pressure Air Temp Water Temp Dewpoint Dewpoint Depression Visibility Wind Speed Wind Dir Waves Ship Positions

Jp Tsubaki

Last reported at 2015-Mar-28 04:33 UTC. Time now 2015-Mar-28 05:13 UTC.
Position N 35°24' E 139°39'.

Length 115 m; draft 4.4 m.

Type: Cargo ship. MMSI: 431000734.

Date/timePositionNaut miles runAvg speedWind from/ knotsBaromVisibWave heightAir tempDewpointWater temp
2015-Mar-28 04:33N 35°24' E 139°39'1 0.5
2015-Mar-28 03:33N 35°24' E 139°39'0 0.0
2015-Mar-28 02:33N 35°24' E 139°39'0 0.1
2015-Mar-28 01:33N 35°24' E 139°39'0 0.1
2015-Mar-28 00:33N 35°24' E 139°39'0 0.0
2015-Mar-27 23:33N 35°24' E 139°39'0 0.0
2015-Mar-27 22:33N 35°24' E 139°39'0 0.0
2015-Mar-27 21:33N 35°24' E 139°39'0 0.0
2015-Mar-27 20:33N 35°24' E 139°39'0 0.0
2015-Mar-27 19:33N 35°24' E 139°39'0 0.0
2015-Mar-27 18:33N 35°24' E 139°39'0 0.0
2015-Mar-27 17:33N 35°24' E 139°39'0 0.0
2015-Mar-27 16:33N 35°24' E 139°39'0 0.0
2015-Mar-27 15:33N 35°24' E 139°39'0 0.3
2015-Mar-27 14:33N 35°24' E 139°38'3 3.1
2015-Mar-27 13:34N 35°24' E 139°42'8 7.6
2015-Mar-27 12:33N 35°30' E 139°47'3 3.4
2015-Mar-27 11:33N 35°30' E 139°43'0 0.0
2015-Mar-27 10:33N 35°30' E 139°43'0 0.0
2015-Mar-27 09:33N 35°30' E 139°43'0 0.0
2015-Mar-27 08:33N 35°30' E 139°43'0 0.0
2015-Mar-27 07:33N 35°30' E 139°43'0 0.0
2015-Mar-27 06:33N 35°30' E 139°43'1 1.0
2015-Mar-27 05:33N 35°29' E 139°42'6 5.9
2015-Mar-27 04:33N 35°24' E 139°40'1 1.2
2015-Mar-27 03:31N 35°24' E 139°39'0 0.0
2015-Mar-27 02:28N 35°24' E 139°39'0 0.0
2015-Mar-27 01:31N 35°24' E 139°39'0 0.0
2015-Mar-27 00:31N 35°24' E 139°39'0 0.0
2015-Mar-26 23:25N 35°24' E 139°39'0 0.0
2015-Mar-26 22:31N 35°24' E 139°39'0 0.0
2015-Mar-26 21:31N 35°24' E 139°39'0 0.0
2015-Mar-26 20:31N 35°24' E 139°39'0 0.0
2015-Mar-26 19:31N 35°24' E 139°39'0 0.0
2015-Mar-26 18:31N 35°24' E 139°39'0 0.0
2015-Mar-26 17:31N 35°24' E 139°39'0 0.0
2015-Mar-26 16:34N 35°24' E 139°39'0 0.0
2015-Mar-26 15:31N 35°24' E 139°39'0 0.0
2015-Mar-26 14:31N 35°24' E 139°39'2 2.2
2015-Mar-26 13:33N 35°23' E 139°41'1010.4
2015-Mar-26 12:34N 35°29' E 139°51'5 4.5
2015-Mar-26 11:33N 35°30' E 139°57'3 2.6
2015-Mar-26 10:32N 35°27' E 139°58'0 0.0
2015-Mar-26 09:32N 35°27' E 139°58'0 0.0
2015-Mar-26 08:32N 35°27' E 139°58'0 0.0
2015-Mar-26 07:32N 35°27' E 139°58'0 0.0
2015-Mar-26 06:30N 35°27' E 139°58'6 6.2
2015-Mar-26 05:33N 35°28' E 139°51'1010.5
2015-Mar-26 04:33N 35°24' E 139°39'0 0.3
2015-Mar-26 03:34N 35°24' E 139°38'0 0.0
2015-Mar-26 02:34N 35°24' E 139°38'0 0.0
2015-Mar-26 01:33N 35°24' E 139°38'0 0.0
2015-Mar-26 00:09N 35°24' E 139°38'0 0.0
2015-Mar-25 23:34N 35°24' E 139°38'0 0.0
2015-Mar-25 22:28N 35°24' E 139°38'0 0.0
2015-Mar-25 21:22N 35°24' E 139°38'0 0.0
2015-Mar-25 20:34N 35°24' E 139°38'0 0.0
2015-Mar-25 19:33N 35°24' E 139°38'0 0.0
2015-Mar-25 18:31N 35°24' E 139°38'0 0.0
2015-Mar-25 17:34N 35°24' E 139°38'0 0.0
2015-Mar-25 16:34N 35°24' E 139°38'0 0.0
2015-Mar-25 15:33N 35°24' E 139°38'0 0.0
2015-Mar-25 14:34N 35°24' E 139°38'0 0.0
2015-Mar-25 13:33N 35°24' E 139°38'0 0.0
2015-Mar-25 12:30N 35°24' E 139°38'0 0.5
2015-Mar-25 11:33N 35°24' E 139°39'5 4.9
2015-Mar-25 10:31N 35°22' E 139°44'5 4.8
2015-Mar-25 09:33N 35°26' E 139°47'5 4.7
2015-Mar-25 08:33N 35°30' E 139°43'0 0.2
2015-Mar-25 07:32N 35°30' E 139°43'0 0.0
2015-Mar-25 06:32N 35°30' E 139°43'0 0.0
2015-Mar-25 05:32N 35°30' E 139°43'0 0.0
2015-Mar-25 04:32N 35°30' E 139°43'0 0.0
2015-Mar-25 03:32N 35°30' E 139°43'2 2.1
2015-Mar-25 02:33N 35°28' E 139°42'5 4.8
2015-Mar-25 01:34N 35°24' E 139°39'0 0.0
2015-Mar-25 00:32N 35°24' E 139°39'0 0.0
2015-Mar-24 23:32N 35°24' E 139°39'0 0.0
2015-Mar-24 22:32N 35°24' E 139°39'0 0.0
2015-Mar-24 21:32N 35°24' E 139°39'0 0.0
2015-Mar-24 20:32N 35°24' E 139°39'0 0.0
2015-Mar-24 19:32N 35°24' E 139°39'0 0.0
2015-Mar-24 18:32N 35°24' E 139°39'0 0.0
2015-Mar-24 17:32N 35°24' E 139°39'0 0.0
2015-Mar-24 16:32N 35°24' E 139°39'0 0.0
2015-Mar-24 15:32N 35°24' E 139°39'0 0.0
2015-Mar-24 14:32N 35°24' E 139°39'0 0.0
2015-Mar-24 13:32N 35°24' E 139°39'0 0.0
2015-Mar-24 12:32N 35°24' E 139°39'0 0.0
2015-Mar-24 11:32N 35°24' E 139°39'0 0.0
2015-Mar-24 10:32N 35°24' E 139°39'0 0.0
2015-Mar-24 09:32N 35°24' E 139°39'0 0.0
2015-Mar-24 08:32N 35°24' E 139°39'0 0.0
2015-Mar-24 07:32N 35°24' E 139°39'0 0.0
2015-Mar-24 06:32N 35°24' E 139°39'0 0.0
2015-Mar-24 05:23N 35°24' E 139°39'0 0.3
2015-Mar-24 04:34N 35°24' E 139°38'8 7.8
2015-Mar-24 03:33N 35°27' E 139°47'4 3.9
2015-Mar-24 02:33N 35°30' E 139°43'0 0.0
2015-Mar-24 01:31N 35°30' E 139°43'0 0.0
2015-Mar-24 00:31N 35°30' E 139°43'0 0.0
2015-Mar-23 23:31N 35°30' E 139°43'0 0.0
2015-Mar-23 22:33N 35°30' E 139°43'5 5.3
2015-Mar-23 21:33N 35°25' E 139°45'1 0.7
2015-Mar-23 20:31N 35°24' E 139°45'0 0.0
2015-Mar-23 19:31N 35°24' E 139°45'0 0.0
2015-Mar-23 18:31N 35°24' E 139°45'0 0.0
2015-Mar-23 17:31N 35°24' E 139°45'0 0.1
2015-Mar-23 16:31N 35°24' E 139°45'0 0.0
2015-Mar-23 15:31N 35°24' E 139°45'0 0.0
2015-Mar-23 14:31N 35°24' E 139°45'0 0.1
2015-Mar-23 13:31N 35°24' E 139°45'5 5.3
2015-Mar-23 12:30N 35°24' E 139°39'0 0.0
2015-Mar-23 11:33N 35°24' E 139°39'0 0.0
2015-Mar-23 10:30N 35°24' E 139°39'0 0.0
2015-Mar-23 09:33N 35°24' E 139°39'0 0.0
2015-Mar-23 08:33N 35°24' E 139°39'0 0.0
2015-Mar-23 07:33N 35°24' E 139°39'0 0.0
2015-Mar-23 06:33N 35°24' E 139°39'0 0.0
2015-Mar-23 05:30N 35°24' E 139°39'0 0.0
2015-Mar-23 04:33N 35°24' E 139°39'0 0.0
2015-Mar-23 03:30N 35°24' E 139°39'0 0.0
2015-Mar-23 02:30N 35°24' E 139°39'0 0.0
2015-Mar-23 01:33N 35°24' E 139°39'0 0.0
2015-Mar-23 00:24N 35°24' E 139°39'0 0.0
2015-Mar-22 23:30N 35°24' E 139°39'0 0.0
2015-Mar-22 22:33N 35°24' E 139°39'0 0.0
2015-Mar-22 21:33N 35°24' E 139°39'0 0.0
2015-Mar-22 20:27N 35°24' E 139°39'0 0.0
2015-Mar-22 19:33N 35°24' E 139°39'0 0.0
2015-Mar-22 18:33N 35°24' E 139°39'0 0.0
2015-Mar-22 17:30N 35°24' E 139°39'0 0.0
2015-Mar-22 16:30N 35°24' E 139°39'0 0.0
2015-Mar-22 15:33N 35°24' E 139°39'0 0.0
2015-Mar-22 14:33N 35°24' E 139°39'0 0.0
2015-Mar-22 13:33N 35°24' E 139°39'4 4.5
2015-Mar-22 12:33N 35°25' E 139°44'1010.1
2015-Mar-22 11:33N 35°30' E 139°55'4 3.6
2015-Mar-22 10:31N 35°27' E 139°58'0 0.0
2015-Mar-22 09:31N 35°27' E 139°58'0 0.0
2015-Mar-22 08:31N 35°27' E 139°58'0 0.0
2015-Mar-22 07:25N 35°27' E 139°58'1 0.6
2015-Mar-22 06:33N 35°28' E 139°58'6 5.8
2015-Mar-22 05:33N 35°28' E 139°51'1010.4
2015-Mar-22 04:33N 35°24' E 139°39'0 0.3
2015-Mar-22 03:33N 35°24' E 139°39'0 0.0
2015-Mar-22 02:33N 35°24' E 139°39'0 0.0
2015-Mar-22 01:33N 35°24' E 139°39'0 0.0
2015-Mar-22 00:33N 35°24' E 139°39'0 0.0
2015-Mar-21 23:33N 35°24' E 139°39'0 0.0
2015-Mar-21 22:33N 35°24' E 139°39'0 0.0
2015-Mar-21 21:33N 35°24' E 139°39'0 0.0
2015-Mar-21 20:33N 35°24' E 139°39'0 0.0
2015-Mar-21 19:33N 35°24' E 139°39'0 0.0
2015-Mar-21 18:33N 35°24' E 139°39'0 0.0
2015-Mar-21 17:33N 35°24' E 139°39'0 0.0
2015-Mar-21 16:30N 35°24' E 139°39'0 0.0
2015-Mar-21 15:33N 35°24' E 139°39'0 0.0
2015-Mar-21 14:30N 35°24' E 139°39'1 1.5
2015-Mar-21 13:33N 35°23' E 139°40'9 8.7
2015-Mar-21 12:34N 35°30' E 139°47'3 2.8
2015-Mar-21 11:32N 35°30' E 139°43'0 0.0
2015-Mar-21 10:32N 35°30' E 139°43'0 0.0
2015-Mar-21 09:32N 35°30' E 139°43'0 0.0
2015-Mar-21 08:32N 35°30' E 139°43'0 0.0
2015-Mar-21 07:32N 35°30' E 139°43'0 0.2
2015-Mar-21 06:33N 35°30' E 139°43'6 6.3
2015-Mar-21 05:33N 35°23' E 139°41'2 2.2
2015-Mar-21 04:31N 35°24' E 139°39'0 0.0
2015-Mar-21 03:31N 35°24' E 139°39'0 0.0
2015-Mar-21 02:31N 35°24' E 139°39'0 0.0
2015-Mar-21 01:31N 35°24' E 139°39'0 0.0
2015-Mar-21 00:31N 35°24' E 139°39'0 0.0
2015-Mar-20 23:31N 35°24' E 139°39'0 0.0
2015-Mar-20 22:31N 35°24' E 139°39'0 0.0
2015-Mar-20 21:31N 35°24' E 139°39'0 0.0
2015-Mar-20 20:31N 35°24' E 139°39'0 0.0
2015-Mar-20 19:31N 35°24' E 139°39'0 0.0
2015-Mar-20 18:25N 35°24' E 139°39'0 0.0
2015-Mar-20 17:31N 35°24' E 139°39'0 0.0
2015-Mar-20 16:31N 35°24' E 139°39'0 0.0
2015-Mar-20 15:31N 35°24' E 139°39'0 0.0
2015-Mar-20 14:31N 35°24' E 139°39'0 0.0
2015-Mar-20 13:31N 35°24' E 139°39'3 3.1
2015-Mar-20 12:33N 35°24' E 139°42'6 6.4
2015-Mar-20 11:33N 35°30' E 139°45'1 1.3
2015-Mar-20 10:33N 35°30' E 139°43'0 0.0
2015-Mar-20 09:33N 35°30' E 139°43'0 0.0
2015-Mar-20 08:33N 35°30' E 139°43'0 0.0
2015-Mar-20 07:33N 35°30' E 139°43'0 0.0
2015-Mar-20 06:33N 35°30' E 139°43'0 0.0
2015-Mar-20 05:33N 35°30' E 139°43'5 5.3
2015-Mar-20 04:33N 35°25' E 139°43'3 3.2
2015-Mar-20 03:30N 35°24' E 139°39'0 0.0
2015-Mar-20 02:30N 35°24' E 139°39'0 0.0
2015-Mar-20 01:33N 35°24' E 139°39'0 0.0
2015-Mar-20 00:33N 35°24' E 139°39'0 0.0
2015-Mar-19 23:33N 35°24' E 139°39'0 0.0
2015-Mar-19 22:33N 35°24' E 139°39'0 0.0
2015-Mar-19 21:33N 35°24' E 139°39'0 0.0
2015-Mar-19 20:33N 35°24' E 139°39'0 0.0
2015-Mar-19 19:33N 35°24' E 139°39'0 0.0
2015-Mar-19 18:33N 35°24' E 139°39'0 0.0
2015-Mar-19 17:33N 35°24' E 139°39'0 0.0
2015-Mar-19 16:33N 35°24' E 139°39'0 0.0
2015-Mar-19 15:33N 35°24' E 139°39'0 0.0
2015-Mar-19 14:33N 35°24' E 139°39'0 0.0
2015-Mar-19 13:33N 35°24' E 139°39'1 1.4
2015-Mar-19 12:33N 35°23' E 139°40'1110.9
2015-Mar-19 11:33N 35°29' E 139°51'4 2.9
2015-Mar-19 10:12N 35°30' E 139°56'0 0.0
2015-Mar-19 09:15N 35°30' E 139°56'0 0.0
2015-Mar-19 08:31N 35°30' E 139°56'0 0.0
2015-Mar-19 05:31N 35°30' E 139°56'0 0.1
2015-Mar-19 04:23N 35°30' E 139°56'0 0.0
2015-Mar-19 03:33N 35°30' E 139°56'0 0.0
2015-Mar-19 00:17N 35°30' E 139°56'0 0.1
2015-Mar-18 23:34N 35°30' E 139°56'0 0.0
2015-Mar-18 21:13N 35°30' E 139°56'0 0.2
2015-Mar-18 20:30N 35°30' E 139°56'0 0.1
2015-Mar-18 19:33N 35°30' E 139°56'3 2.9
2015-Mar-18 18:32N 35°27' E 139°58'0 0.0
2015-Mar-18 17:32N 35°27' E 139°58'0 0.0
2015-Mar-18 16:32N 35°27' E 139°58'0 0.0
2015-Mar-18 14:33N 35°27' E 139°58'7 7.4
2015-Mar-18 13:33N 35°27' E 139°49'9 9.0
2015-Mar-18 12:33N 35°24' E 139°39'0 0.0
2015-Mar-18 11:32N 35°24' E 139°39'0 0.0
2015-Mar-18 10:32N 35°24' E 139°39'0 0.0
2015-Mar-18 09:29N 35°24' E 139°39'0 0.0
2015-Mar-18 08:23N 35°24' E 139°39'0 0.0
2015-Mar-18 07:29N 35°24' E 139°39'2 1.6
2015-Mar-18 06:33N 35°24' E 139°40'8 8.4
2015-Mar-18 05:33N 35°30' E 139°46'3 2.7
2015-Mar-18 04:34N 35°30' E 139°43'  
Track history (hours):
 
Tides and Currents Weather Stations Pressure Air Temp Water Temp Dewpoint Dewpoint Depression Visibility Wind Speed Wind Dir Waves Ship Positions

Jp Tsubaki

Last reported at 2015-Mar-28 04:33 UTC. Time now 2015-Mar-28 05:13 UTC.
Position N 35°24' E 139°39'.

Length 115 m; draft 4.4 m.

Type: Cargo ship. MMSI: 431000734.

Date/timePositionNaut miles runAvg speedWind from/ knotsBaromVisibWave heightAir tempDewpointWater temp
2015-Mar-28 04:33N 35°24' E 139°39'1 0.5
2015-Mar-28 03:33N 35°24' E 139°39'0 0.0
2015-Mar-28 02:33N 35°24' E 139°39'0 0.1
2015-Mar-28 01:33N 35°24' E 139°39'0 0.1
2015-Mar-28 00:33N 35°24' E 139°39'0 0.0
2015-Mar-27 23:33N 35°24' E 139°39'0 0.0
2015-Mar-27 22:33N 35°24' E 139°39'0 0.0
2015-Mar-27 21:33N 35°24' E 139°39'0 0.0
2015-Mar-27 20:33N 35°24' E 139°39'0 0.0
2015-Mar-27 19:33N 35°24' E 139°39'0 0.0
2015-Mar-27 18:33N 35°24' E 139°39'0 0.0
2015-Mar-27 17:33N 35°24' E 139°39'0 0.0
2015-Mar-27 16:33N 35°24' E 139°39'0 0.0
2015-Mar-27 15:33N 35°24' E 139°39'0 0.3
2015-Mar-27 14:33N 35°24' E 139°38'3 3.1
2015-Mar-27 13:34N 35°24' E 139°42'8 7.6
2015-Mar-27 12:33N 35°30' E 139°47'3 3.4
2015-Mar-27 11:33N 35°30' E 139°43'0 0.0
2015-Mar-27 10:33N 35°30' E 139°43'0 0.0
2015-Mar-27 09:33N 35°30' E 139°43'0 0.0
2015-Mar-27 08:33N 35°30' E 139°43'0 0.0
2015-Mar-27 07:33N 35°30' E 139°43'0 0.0
2015-Mar-27 06:33N 35°30' E 139°43'1 1.0
2015-Mar-27 05:33N 35°29' E 139°42'6 5.9
2015-Mar-27 04:33N 35°24' E 139°40'1 1.2
2015-Mar-27 03:31N 35°24' E 139°39'0 0.0
2015-Mar-27 02:28N 35°24' E 139°39'0 0.0
2015-Mar-27 01:31N 35°24' E 139°39'0 0.0
2015-Mar-27 00:31N 35°24' E 139°39'0 0.0
2015-Mar-26 23:25N 35°24' E 139°39'0 0.0
2015-Mar-26 22:31N 35°24' E 139°39'0 0.0
2015-Mar-26 21:31N 35°24' E 139°39'0 0.0
2015-Mar-26 20:31N 35°24' E 139°39'0 0.0
2015-Mar-26 19:31N 35°24' E 139°39'0 0.0
2015-Mar-26 18:31N 35°24' E 139°39'0 0.0
2015-Mar-26 17:31N 35°24' E 139°39'0 0.0
2015-Mar-26 16:34N 35°24' E 139°39'0 0.0
2015-Mar-26 15:31N 35°24' E 139°39'0 0.0
2015-Mar-26 14:31N 35°24' E 139°39'2 2.2
2015-Mar-26 13:33N 35°23' E 139°41'1010.4
2015-Mar-26 12:34N 35°29' E 139°51'5 4.5
2015-Mar-26 11:33N 35°30' E 139°57'3 2.6
2015-Mar-26 10:32N 35°27' E 139°58'0 0.0
2015-Mar-26 09:32N 35°27' E 139°58'0 0.0
2015-Mar-26 08:32N 35°27' E 139°58'0 0.0
2015-Mar-26 07:32N 35°27' E 139°58'0 0.0
2015-Mar-26 06:30N 35°27' E 139°58'6 6.2
2015-Mar-26 05:33N 35°28' E 139°51'1010.5
2015-Mar-26 04:33N 35°24' E 139°39'0 0.3
2015-Mar-26 03:34N 35°24' E 139°38'0 0.0
2015-Mar-26 02:34N 35°24' E 139°38'0 0.0
2015-Mar-26 01:33N 35°24' E 139°38'0 0.0
2015-Mar-26 00:09N 35°24' E 139°38'0 0.0
2015-Mar-25 23:34N 35°24' E 139°38'0 0.0
2015-Mar-25 22:28N 35°24' E 139°38'0 0.0
2015-Mar-25 21:22N 35°24' E 139°38'0 0.0
2015-Mar-25 20:34N 35°24' E 139°38'0 0.0
2015-Mar-25 19:33N 35°24' E 139°38'0 0.0
2015-Mar-25 18:31N 35°24' E 139°38'0 0.0
2015-Mar-25 17:34N 35°24' E 139°38'0 0.0
2015-Mar-25 16:34N 35°24' E 139°38'0 0.0
2015-Mar-25 15:33N 35°24' E 139°38'0 0.0
2015-Mar-25 14:34N 35°24' E 139°38'0 0.0
2015-Mar-25 13:33N 35°24' E 139°38'0 0.0
2015-Mar-25 12:30N 35°24' E 139°38'0 0.5
2015-Mar-25 11:33N 35°24' E 139°39'5 4.9
2015-Mar-25 10:31N 35°22' E 139°44'5 4.8
2015-Mar-25 09:33N 35°26' E 139°47'5 4.7
2015-Mar-25 08:33N 35°30' E 139°43'0 0.2
2015-Mar-25 07:32N 35°30' E 139°43'0 0.0
2015-Mar-25 06:32N 35°30' E 139°43'0 0.0
2015-Mar-25 05:32N 35°30' E 139°43'0 0.0
2015-Mar-25 04:32N 35°30' E 139°43'0 0.0
2015-Mar-25 03:32N 35°30' E 139°43'2 2.1
2015-Mar-25 02:33N 35°28' E 139°42'5 4.8
2015-Mar-25 01:34N 35°24' E 139°39'0 0.0
2015-Mar-25 00:32N 35°24' E 139°39'0 0.0
2015-Mar-24 23:32N 35°24' E 139°39'0 0.0
2015-Mar-24 22:32N 35°24' E 139°39'0 0.0
2015-Mar-24 21:32N 35°24' E 139°39'0 0.0
2015-Mar-24 20:32N 35°24' E 139°39'0 0.0
2015-Mar-24 19:32N 35°24' E 139°39'0 0.0
2015-Mar-24 18:32N 35°24' E 139°39'0 0.0
2015-Mar-24 17:32N 35°24' E 139°39'0 0.0
2015-Mar-24 16:32N 35°24' E 139°39'0 0.0
2015-Mar-24 15:32N 35°24' E 139°39'0 0.0
2015-Mar-24 14:32N 35°24' E 139°39'0 0.0
2015-Mar-24 13:32N 35°24' E 139°39'0 0.0
2015-Mar-24 12:32N 35°24' E 139°39'0 0.0
2015-Mar-24 11:32N 35°24' E 139°39'0 0.0
2015-Mar-24 10:32N 35°24' E 139°39'0 0.0
2015-Mar-24 09:32N 35°24' E 139°39'0 0.0
2015-Mar-24 08:32N 35°24' E 139°39'0 0.0
2015-Mar-24 07:32N 35°24' E 139°39'0 0.0
2015-Mar-24 06:32N 35°24' E 139°39'0 0.0
2015-Mar-24 05:23N 35°24' E 139°39'0 0.3
2015-Mar-24 04:34N 35°24' E 139°38'8 7.8
2015-Mar-24 03:33N 35°27' E 139°47'4 3.9
2015-Mar-24 02:33N 35°30' E 139°43'0 0.0
2015-Mar-24 01:31N 35°30' E 139°43'0 0.0
2015-Mar-24 00:31N 35°30' E 139°43'0 0.0
2015-Mar-23 23:31N 35°30' E 139°43'0 0.0
2015-Mar-23 22:33N 35°30' E 139°43'5 5.3
2015-Mar-23 21:33N 35°25' E 139°45'1 0.7
2015-Mar-23 20:31N 35°24' E 139°45'0 0.0
2015-Mar-23 19:31N 35°24' E 139°45'0 0.0
2015-Mar-23 18:31N 35°24' E 139°45'0 0.0
2015-Mar-23 17:31N 35°24' E 139°45'0 0.1
2015-Mar-23 16:31N 35°24' E 139°45'0 0.0
2015-Mar-23 15:31N 35°24' E 139°45'0 0.0
2015-Mar-23 14:31N 35°24' E 139°45'0 0.1
2015-Mar-23 13:31N 35°24' E 139°45'5 5.3
2015-Mar-23 12:30N 35°24' E 139°39'0 0.0
2015-Mar-23 11:33N 35°24' E 139°39'0 0.0
2015-Mar-23 10:30N 35°24' E 139°39'0 0.0
2015-Mar-23 09:33N 35°24' E 139°39'0 0.0
2015-Mar-23 08:33N 35°24' E 139°39'0 0.0
2015-Mar-23 07:33N 35°24' E 139°39'0 0.0
2015-Mar-23 06:33N 35°24' E 139°39'0 0.0
2015-Mar-23 05:30N 35°24' E 139°39'0 0.0
2015-Mar-23 04:33N 35°24' E 139°39'0 0.0
2015-Mar-23 03:30N 35°24' E 139°39'0 0.0
2015-Mar-23 02:30N 35°24' E 139°39'0 0.0
2015-Mar-23 01:33N 35°24' E 139°39'0 0.0
2015-Mar-23 00:24N 35°24' E 139°39'0 0.0
2015-Mar-22 23:30N 35°24' E 139°39'0 0.0
2015-Mar-22 22:33N 35°24' E 139°39'0 0.0
2015-Mar-22 21:33N 35°24' E 139°39'0 0.0
2015-Mar-22 20:27N 35°24' E 139°39'0 0.0
2015-Mar-22 19:33N 35°24' E 139°39'0 0.0
2015-Mar-22 18:33N 35°24' E 139°39'0 0.0
2015-Mar-22 17:30N 35°24' E 139°39'0 0.0
2015-Mar-22 16:30N 35°24' E 139°39'0 0.0
2015-Mar-22 15:33N 35°24' E 139°39'0 0.0
2015-Mar-22 14:33N 35°24' E 139°39'0 0.0
2015-Mar-22 13:33N 35°24' E 139°39'4 4.5
2015-Mar-22 12:33N 35°25' E 139°44'1010.1
2015-Mar-22 11:33N 35°30' E 139°55'4 3.6
2015-Mar-22 10:31N 35°27' E 139°58'0 0.0
2015-Mar-22 09:31N 35°27' E 139°58'0 0.0
2015-Mar-22 08:31N 35°27' E 139°58'0 0.0
2015-Mar-22 07:25N 35°27' E 139°58'1 0.6
2015-Mar-22 06:33N 35°28' E 139°58'6 5.8
2015-Mar-22 05:33N 35°28' E 139°51'1010.4
2015-Mar-22 04:33N 35°24' E 139°39'0 0.3
2015-Mar-22 03:33N 35°24' E 139°39'0 0.0
2015-Mar-22 02:33N 35°24' E 139°39'0 0.0
2015-Mar-22 01:33N 35°24' E 139°39'0 0.0
2015-Mar-22 00:33N 35°24' E 139°39'0 0.0
2015-Mar-21 23:33N 35°24' E 139°39'0 0.0
2015-Mar-21 22:33N 35°24' E 139°39'0 0.0
2015-Mar-21 21:33N 35°24' E 139°39'0 0.0
2015-Mar-21 20:33N 35°24' E 139°39'0 0.0
2015-Mar-21 19:33N 35°24' E 139°39'0 0.0
2015-Mar-21 18:33N 35°24' E 139°39'0 0.0
2015-Mar-21 17:33N 35°24' E 139°39'0 0.0
2015-Mar-21 16:30N 35°24' E 139°39'0 0.0
2015-Mar-21 15:33N 35°24' E 139°39'0 0.0
2015-Mar-21 14:30N 35°24' E 139°39'1 1.5
2015-Mar-21 13:33N 35°23' E 139°40'9 8.7
2015-Mar-21 12:34N 35°30' E 139°47'3 2.8
2015-Mar-21 11:32N 35°30' E 139°43'0 0.0
2015-Mar-21 10:32N 35°30' E 139°43'0 0.0
2015-Mar-21 09:32N 35°30' E 139°43'0 0.0
2015-Mar-21 08:32N 35°30' E 139°43'0 0.0
2015-Mar-21 07:32N 35°30' E 139°43'0 0.2
2015-Mar-21 06:33N 35°30' E 139°43'6 6.3
2015-Mar-21 05:33N 35°23' E 139°41'2 2.2
2015-Mar-21 04:31N 35°24' E 139°39'0 0.0
2015-Mar-21 03:31N 35°24' E 139°39'0 0.0
2015-Mar-21 02:31N 35°24' E 139°39'0 0.0
2015-Mar-21 01:31N 35°24' E 139°39'0 0.0
2015-Mar-21 00:31N 35°24' E 139°39'0 0.0
2015-Mar-20 23:31N 35°24' E 139°39'0 0.0
2015-Mar-20 22:31N 35°24' E 139°39'0 0.0
2015-Mar-20 21:31N 35°24' E 139°39'0 0.0
2015-Mar-20 20:31N 35°24' E 139°39'0 0.0
2015-Mar-20 19:31N 35°24' E 139°39'0 0.0
2015-Mar-20 18:25N 35°24' E 139°39'0 0.0
2015-Mar-20 17:31N 35°24' E 139°39'0 0.0
2015-Mar-20 16:31N 35°24' E 139°39'0 0.0
2015-Mar-20 15:31N 35°24' E 139°39'0 0.0
2015-Mar-20 14:31N 35°24' E 139°39'0 0.0
2015-Mar-20 13:31N 35°24' E 139°39'3 3.1
2015-Mar-20 12:33N 35°24' E 139°42'6 6.4
2015-Mar-20 11:33N 35°30' E 139°45'1 1.3
2015-Mar-20 10:33N 35°30' E 139°43'0 0.0
2015-Mar-20 09:33N 35°30' E 139°43'0 0.0
2015-Mar-20 08:33N 35°30' E 139°43'0 0.0
2015-Mar-20 07:33N 35°30' E 139°43'0 0.0
2015-Mar-20 06:33N 35°30' E 139°43'0 0.0
2015-Mar-20 05:33N 35°30' E 139°43'5 5.3
2015-Mar-20 04:33N 35°25' E 139°43'3 3.2
2015-Mar-20 03:30N 35°24' E 139°39'0 0.0
2015-Mar-20 02:30N 35°24' E 139°39'0 0.0
2015-Mar-20 01:33N 35°24' E 139°39'0 0.0
2015-Mar-20 00:33N 35°24' E 139°39'0 0.0
2015-Mar-19 23:33N 35°24' E 139°39'0 0.0
2015-Mar-19 22:33N 35°24' E 139°39'0 0.0
2015-Mar-19 21:33N 35°24' E 139°39'0 0.0
2015-Mar-19 20:33N 35°24' E 139°39'0 0.0
2015-Mar-19 19:33N 35°24' E 139°39'0 0.0
2015-Mar-19 18:33N 35°24' E 139°39'0 0.0
2015-Mar-19 17:33N 35°24' E 139°39'0 0.0
2015-Mar-19 16:33N 35°24' E 139°39'0 0.0
2015-Mar-19 15:33N 35°24' E 139°39'0 0.0
2015-Mar-19 14:33N 35°24' E 139°39'0 0.0
2015-Mar-19 13:33N 35°24' E 139°39'1 1.4
2015-Mar-19 12:33N 35°23' E 139°40'1110.9
2015-Mar-19 11:33N 35°29' E 139°51'4 2.9
2015-Mar-19 10:12N 35°30' E 139°56'0 0.0
2015-Mar-19 09:15N 35°30' E 139°56'0 0.0
2015-Mar-19 08:31N 35°30' E 139°56'0 0.0
2015-Mar-19 05:31N 35°30' E 139°56'0 0.1
2015-Mar-19 04:23N 35°30' E 139°56'0 0.0
2015-Mar-19 03:33N 35°30' E 139°56'0 0.0
2015-Mar-19 00:17N 35°30' E 139°56'0 0.1
2015-Mar-18 23:34N 35°30' E 139°56'0 0.0
2015-Mar-18 21:13N 35°30' E 139°56'0 0.2
2015-Mar-18 20:30N 35°30' E 139°56'0 0.1
2015-Mar-18 19:33N 35°30' E 139°56'3 2.9
2015-Mar-18 18:32N 35°27' E 139°58'0 0.0
2015-Mar-18 17:32N 35°27' E 139°58'0 0.0
2015-Mar-18 16:32N 35°27' E 139°58'0 0.0
2015-Mar-18 14:33N 35°27' E 139°58'7 7.4
2015-Mar-18 13:33N 35°27' E 139°49'9 9.0
2015-Mar-18 12:33N 35°24' E 139°39'0 0.0
2015-Mar-18 11:32N 35°24' E 139°39'0 0.0
2015-Mar-18 10:32N 35°24' E 139°39'0 0.0
2015-Mar-18 09:29N 35°24' E 139°39'0 0.0
2015-Mar-18 08:23N 35°24' E 139°39'0 0.0
2015-Mar-18 07:29N 35°24' E 139°39'2 1.6
2015-Mar-18 06:33N 35°24' E 139°40'8 8.4
2015-Mar-18 05:33N 35°30' E 139°46'3 2.7
2015-Mar-18 04:34N 35°30' E 139°43'  

Dump ship's entire track history